Time;durP1;ratioP1;P1;durP2;ratioP2;P2;SDS_P1;SDS_P2;PMS_P1;PMS_P2;Temp;Humidity;BMP_temperature;BMP_pressure;BME280_temperature;BME280_humidity;BME280_pressure;Samples;Min_cycle;Max_cycle;Signal;HPM_P1;HPM_P2
2022/10/01 00:00:22;;;;;;;;;;;;;;;11.86;67.84;98920.00;5055091;28;19935;-89
2022/10/01 00:02:47;;;;;;;;;;;;;;;11.87;67.39;98919.72;5055311;28;19909;-90
2022/10/01 00:05:12;;;;;;;;;;;;;;;11.83;67.73;98907.75;5054517;28;19915;-89
2022/10/01 00:07:41;;;;;;;;;;;;;;;11.81;68.33;98911.88;5054713;28;19951;-90
2022/10/01 00:10:07;;;;;;;;;;;;;;;11.87;67.55;98897.88;5057915;28;19912;-90
2022/10/01 00:12:33;;;;;;;;;;;;;;;11.82;67.92;98897.94;5058762;28;20011;-90
2022/10/01 00:14:58;;;;;;;;;;;;;;;11.91;67.92;98889.91;5058467;28;19909;-89
2022/10/01 00:17:24;;;;;;;;;;;;;;;11.84;67.98;98895.72;5058864;28;19909;-90
2022/10/01 00:19:49;;;;;;;;;;;;;;;11.87;67.69;98883.41;5058822;28;20365;-90
2022/10/01 00:22:14;;;;;;;;;;;;;;;11.87;68.30;98872.47;5058937;28;20333;-89
2022/10/01 00:24:39;;;;;;;;;;;;;;;11.85;67.93;98880.16;5058366;28;19908;-90
2022/10/01 00:27:05;;;;;;;;;;;;;;;11.88;68.04;98883.09;5058330;28;20376;-90
2022/10/01 00:29:30;;;;;;;;;;;;;;;11.86;68.01;98870.84;5058787;28;19913;-90
2022/10/01 00:31:56;;;;;;;;;;;;;;;11.79;68.20;98877.50;5058353;28;19908;-90
2022/10/01 00:34:22;;;;;;;;;;;;;;;11.86;68.17;98879.03;5058208;28;19909;-89
2022/10/01 00:36:48;;;;;;;;;;;;;;;11.93;67.78;98860.38;5058101;28;19909;-89
2022/10/01 00:39:13;;;;;;;;;;;;;;;11.89;67.78;98876.53;5057794;28;19916;-90
2022/10/01 00:41:39;;;;;;;;;;;;;;;12.00;67.63;98866.25;5058029;28;19916;-89
2022/10/01 00:44:23;;;;;;;;;;;;;;;11.84;67.97;98854.75;5058241;28;20260;-89
2022/10/01 00:46:48;;;;;;;;;;;;;;;11.89;67.94;98848.41;5058567;28;19916;-90
2022/10/01 00:49:17;;;;;;;;;;;;;;;11.96;68.34;98848.84;5058113;28;20338;-89
2022/10/01 00:51:44;;;;;;;;;;;;;;;11.97;69.16;98855.94;5058294;28;19913;-89
2022/10/01 00:54:12;;;;;;;;;;;;;;;11.88;69.69;98858.50;5058129;28;19912;-89
2022/10/01 00:56:37;;;;;;;;;;;;;;;11.86;71.04;98848.97;5057776;28;19962;-89
2022/10/01 00:59:03;;;;;;;;;;;;;;;11.74;71.96;98844.78;5057991;28;19999;-90
2022/10/01 01:01:28;;;;;;;;;;;;;;;11.76;72.76;98850.78;5057950;28;19909;-90
2022/10/01 01:03:55;;;;;;;;;;;;;;;11.63;73.59;98829.69;5057699;28;19909;-90
2022/10/01 01:06:20;;;;;;;;;;;;;;;11.65;74.19;98828.25;5057752;28;19947;-90
2022/10/01 01:08:47;;;;;;;;;;;;;;;11.54;75.09;98816.69;5058235;28;19909;-90
2022/10/01 01:11:21;;;;;;;;;;;;;;;11.41;76.84;98831.06;5058196;28;19912;-89
2022/10/01 01:13:55;;;;;;;;;;;;;;;11.30;77.85;98812.09;5058473;28;20330;-89
2022/10/01 01:16:28;;;;;;;;;;;;;;;11.31;78.19;98818.34;5058059;28;19908;-89
2022/10/01 01:19:21;;;;;;;;;;;;;;;11.34;79.17;98804.13;5057446;28;19971;-89
2022/10/01 01:21:50;;;;;;;;;;;;;;;11.19;80.18;98800.50;5057833;28;19908;-89
2022/10/01 01:24:15;;;;;;;;;;;;;;;11.05;80.50;98786.75;5057368;28;19999;-89
2022/10/01 01:26:49;;;;;;;;;;;;;;;11.08;82.11;98782.63;5057409;28;19963;-89
2022/10/01 01:29:20;;;;;;;;;;;;;;;11.05;81.97;98773.13;5057280;28;19915;-89
2022/10/01 01:31:46;;;;;;;;;;;;;;;11.04;82.52;98770.69;5057746;28;19913;-89
2022/10/01 01:34:14;;;;;;;;;;;;;;;10.84;83.13;98754.28;5057284;28;19909;-89
2022/10/01 01:36:42;;;;;;;;;;;;;;;10.92;83.63;98755.53;5057322;28;19995;-89
2022/10/01 01:39:09;;;;;;;;;;;;;;;10.73;83.83;98748.16;5057014;28;19909;-89
2022/10/01 01:41:38;;;;;;;;;;;;;;;10.79;85.02;98735.25;5057184;28;19909;-90
2022/10/01 01:44:07;;;;;;;;;;;;;;;10.81;84.88;98724.88;5056915;28;20047;-89
2022/10/01 01:46:33;;;;;;;;;;;;;;;10.70;85.27;98717.94;5056741;28;19913;-89
2022/10/01 01:48:59;;;;;;;;;;;;;;;10.73;85.19;98706.44;5056747;28;19959;-90
2022/10/01 01:51:44;;;;;;;;;;;;;;;10.54;85.99;98690.84;5056678;28;20400;-89
2022/10/01 01:54:09;;;;;;;;;;;;;;;10.56;85.99;98680.47;5057184;28;19908;-88
2022/10/01 01:56:34;;;;;;;;;;;;;;;10.55;86.69;98676.13;5056620;28;20355;-89
2022/10/01 01:59:00;;;;;;;;;;;;;;;10.55;86.71;98672.59;5056500;28;19916;-89
2022/10/01 02:01:38;;;;;;;;;;;;;;;10.52;86.53;98673.97;5056569;28;19954;-89
2022/10/01 02:04:24;;;;;;;;;;;;;;;10.54;87.61;98660.06;5057476;28;19909;-89
2022/10/01 02:07:08;;;;;;;;;;;;;;;10.61;86.97;98661.34;5052746;28;19913;-89
2022/10/01 02:09:53;;;;;;;;;;;;;;;10.47;87.00;98650.31;5056389;28;19916;-89
2022/10/01 02:12:30;;;;;;;;;;;;;;;10.58;86.98;98661.91;5056088;28;19909;-90
2022/10/01 02:15:00;;;;;;;;;;;;;;;10.53;87.08;98648.38;5056957;28;19909;-89
2022/10/01 02:17:30;;;;;;;;;;;;;;;10.39;87.45;98638.13;5056848;28;19909;-90
2022/10/01 02:19:59;;;;;;;;;;;;;;;10.45;87.36;98647.06;5056830;28;19908;-90
2022/10/01 02:22:27;;;;;;;;;;;;;;;10.38;87.15;98643.88;5056649;28;19909;-89
2022/10/01 02:24:57;;;;;;;;;;;;;;;10.49;87.35;98652.78;5056689;28;19912;-89
2022/10/01 02:27:25;;;;;;;;;;;;;;;10.51;87.46;98656.00;5056126;28;19916;-88
2022/10/01 02:29:52;;;;;;;;;;;;;;;10.31;87.46;98641.50;5056602;28;19913;-89
2022/10/01 02:32:18;;;;;;;;;;;;;;;10.38;88.17;98647.41;5055767;28;19912;-89
2022/10/01 02:34:44;;;;;;;;;;;;;;;10.35;87.88;98667.03;5055832;28;19920;-89
2022/10/01 02:37:10;;;;;;;;;;;;;;;10.35;88.62;98645.25;5056518;28;19913;-89
2022/10/01 02:39:39;;;;;;;;;;;;;;;10.44;88.08;98650.88;5055538;28;20357;-89
2022/10/01 02:42:07;;;;;;;;;;;;;;;10.40;88.57;98638.94;5056095;28;20365;-89
2022/10/01 02:44:37;;;;;;;;;;;;;;;10.34;88.33;98656.44;5056124;28;19909;-89
2022/10/01 02:47:11;;;;;;;;;;;;;;;10.40;88.54;98655.28;5055609;28;20307;-89
2022/10/01 02:49:40;;;;;;;;;;;;;;;10.38;88.49;98658.31;5055962;28;19911;-89
2022/10/01 02:52:14;;;;;;;;;;;;;;;10.29;88.83;98665.50;5056100;28;20371;-89
2022/10/01 02:54:44;;;;;;;;;;;;;;;10.34;89.24;98651.81;5055783;28;19915;-89
2022/10/01 02:57:28;;;;;;;;;;;;;;;10.27;89.88;98651.38;5056154;28;20250;-89
2022/10/01 03:00:02;;;;;;;;;;;;;;;10.25;90.00;98642.66;5055769;28;20338;-89
2022/10/01 03:02:30;;;;;;;;;;;;;;;10.13;90.42;98630.25;5055781;28;19908;-89
2022/10/01 03:04:56;;;;;;;;;;;;;;;10.09;90.34;98631.94;5055857;28;19912;-89
2022/10/01 03:07:21;;;;;;;;;;;;;;;10.11;91.14;98604.44;5055505;28;19908;-90
2022/10/01 03:09:48;;;;;;;;;;;;;;;10.11;91.87;98596.25;5055390;28;20017;-89
2022/10/01 03:12:14;;;;;;;;;;;;;;;10.11;91.76;98577.97;5055348;28;19917;-90
2022/10/01 03:14:39;;;;;;;;;;;;;;;10.02;92.57;98577.84;5055714;28;19908;-90
2022/10/01 03:17:06;;;;;;;;;;;;;;;10.12;92.07;98597.88;5055641;28;20325;-89
2022/10/01 03:19:31;;;;;;;;;;;;;;;10.06;92.51;98593.59;5055408;28;19908;-90
2022/10/01 03:21:56;;;;;;;;;;;;;;;10.15;92.01;98595.38;5054933;28;19909;-89
2022/10/01 03:24:21;;;;;;;;;;;;;;;10.10;91.60;98591.91;5055012;28;19958;-89
2022/10/01 03:26:46;;;;;;;;;;;;;;;10.16;92.28;98591.56;5055012;28;19962;-89
2022/10/01 03:29:12;;;;;;;;;;;;;;;10.09;92.20;98599.25;5055069;28;19912;-89
2022/10/01 03:31:37;;;;;;;;;;;;;;;10.05;92.45;98606.38;5055196;28;20258;-90
2022/10/01 03:34:02;;;;;;;;;;;;;;;10.24;92.62;98611.06;5055242;28;19918;-90
2022/10/01 03:36:28;;;;;;;;;;;;;;;10.22;92.27;98602.38;5055444;28;19913;-90
2022/10/01 03:38:53;;;;;;;;;;;;;;;10.09;92.45;98577.47;5054894;28;19912;-90
2022/10/01 03:41:18;;;;;;;;;;;;;;;10.21;92.90;98568.09;5055020;28;20350;-90
2022/10/01 03:43:44;;;;;;;;;;;;;;;10.08;93.94;98573.13;5055081;28;20003;-89
2022/10/01 03:46:10;;;;;;;;;;;;;;;10.03;93.26;98581.34;5054813;28;19915;-89
2022/10/01 03:48:35;;;;;;;;;;;;;;;10.07;93.06;98567.97;5054736;28;19943;-89
2022/10/01 03:51:00;;;;;;;;;;;;;;;10.17;93.79;98570.56;5053900;28;19912;-90
2022/10/01 03:53:26;;;;;;;;;;;;;;;10.03;93.83;98575.91;5054763;28;19909;-89
2022/10/01 03:55:52;;;;;;;;;;;;;;;10.12;93.85;98573.34;5054913;28;19971;-89
2022/10/01 03:58:17;;;;;;;;;;;;;;;10.04;94.37;98569.38;5054773;28;20304;-89
2022/10/01 04:00:43;;;;;;;;;;;;;;;10.00;95.08;98562.88;5054775;28;19909;-89
2022/10/01 04:03:09;;;;;;;;;;;;;;;10.00;95.09;98532.94;5054968;28;20369;-89
2022/10/01 04:05:35;;;;;;;;;;;;;;;10.03;95.06;98538.59;5055243;28;19971;-90
2022/10/01 04:08:00;;;;;;;;;;;;;;;10.01;95.01;98515.47;5054641;28;20338;-89
2022/10/01 04:10:25;;;;;;;;;;;;;;;9.97;95.28;98514.44;5054824;28;20350;-90
2022/10/01 04:12:50;;;;;;;;;;;;;;;9.99;95.62;98517.69;5054561;28;19908;-89
2022/10/01 04:15:15;;;;;;;;;;;;;;;10.01;95.24;98520.91;5055078;28;20338;-89
2022/10/01 04:17:41;;;;;;;;;;;;;;;9.98;95.77;98518.78;5054500;28;19909;-89
2022/10/01 04:20:07;;;;;;;;;;;;;;;9.98;96.02;98518.78;5054705;28;19915;-89
2022/10/01 04:22:34;;;;;;;;;;;;;;;9.99;96.39;98514.97;5054574;28;19913;-89
2022/10/01 04:25:01;;;;;;;;;;;;;;;9.96;96.22;98504.66;5055081;28;20030;-89
2022/10/01 04:27:26;;;;;;;;;;;;;;;10.02;96.07;98508.94;5053981;28;20324;-89
2022/10/01 04:29:51;;;;;;;;;;;;;;;10.11;95.05;98507.19;5055129;28;19912;-89
2022/10/01 04:32:20;;;;;;;;;;;;;;;10.06;94.62;98526.31;5054452;28;19909;-89
2022/10/01 04:34:51;;;;;;;;;;;;;;;10.08;95.27;98496.88;5054432;28;19920;-89
2022/10/01 04:37:16;;;;;;;;;;;;;;;10.05;94.83;98497.44;5055043;28;20326;-89
2022/10/01 04:39:41;;;;;;;;;;;;;;;9.97;94.96;98498.09;5054407;28;19919;-89
2022/10/01 04:42:07;;;;;;;;;;;;;;;10.00;94.88;98513.88;5054321;28;19909;-89
2022/10/01 04:44:32;;;;;;;;;;;;;;;10.09;95.08;98519.50;5054255;28;20341;-89
2022/10/01 04:46:57;;;;;;;;;;;;;;;10.05;95.15;98519.25;5054979;28;19948;-90
2022/10/01 04:49:22;;;;;;;;;;;;;;;10.15;95.28;98497.31;5054010;28;20265;-90
2022/10/01 04:51:47;;;;;;;;;;;;;;;10.13;94.99;98482.38;5053960;28;19908;-90
2022/10/01 04:54:12;;;;;;;;;;;;;;;10.19;94.65;98491.31;5054320;28;19909;-91
2022/10/01 04:56:38;;;;;;;;;;;;;;;10.19;94.33;98491.31;5057578;28;20329;-90
2022/10/01 04:59:03;;;;;;;;;;;;;;;10.26;94.64;98503.44;5058519;28;19953;-90
2022/10/01 05:01:30;;;;;;;;;;;;;;;10.26;95.30;98492.56;5058353;28;19916;-90
2022/10/01 05:03:56;;;;;;;;;;;;;;;10.29;94.81;98496.63;5057750;28;19909;-90
2022/10/01 05:06:21;;;;;;;;;;;;;;;10.24;94.49;98474.88;5058155;28;20491;-90
2022/10/01 05:08:47;;;;;;;;;;;;;;;10.26;94.31;98470.75;5057916;28;19909;-90
2022/10/01 05:11:12;;;;;;;;;;;;;;;10.28;94.58;98470.47;5057585;28;19919;-90
2022/10/01 05:13:38;;;;;;;;;;;;;;;10.25;94.56;98465.63;5058472;28;19908;-90
2022/10/01 05:16:03;;;;;;;;;;;;;;;10.30;94.60;98457.34;5057455;28;19964;-90
2022/10/01 05:18:29;;;;;;;;;;;;;;;10.33;94.79;98458.69;5057797;28;19915;-90
2022/10/01 05:20:54;;;;;;;;;;;;;;;10.36;94.64;98480.69;5057536;28;20249;-89
2022/10/01 05:23:19;;;;;;;;;;;;;;;10.37;95.01;98468.69;5057301;28;20305;-89
2022/10/01 05:25:45;;;;;;;;;;;;;;;10.35;94.71;98481.78;5057869;28;19915;-90
2022/10/01 05:28:10;;;;;;;;;;;;;;;10.43;94.93;98474.06;5057374;28;19908;-90
2022/10/01 05:30:36;;;;;;;;;;;;;;;10.38;95.00;98472.22;5057685;28;19909;-90
2022/10/01 05:33:02;;;;;;;;;;;;;;;10.41;95.21;98482.53;5057090;28;19912;-90
2022/10/01 05:35:28;;;;;;;;;;;;;;;10.43;95.94;98476.78;5057153;28;20266;-89
2022/10/01 05:37:57;;;;;;;;;;;;;;;10.41;95.85;98476.28;5057157;28;19939;-89
2022/10/01 05:40:26;;;;;;;;;;;;;;;10.47;95.91;98494.19;5056101;28;19912;-90
2022/10/01 05:42:51;;;;;;;;;;;;;;;10.41;96.65;98489.91;5057504;28;19908;-89
2022/10/01 05:45:18;;;;;;;;;;;;;;;10.37;96.97;98498.66;5056776;28;19922;-89
2022/10/01 05:47:44;;;;;;;;;;;;;;;10.39;97.15;98507.34;5057089;28;19908;-89
2022/10/01 05:50:09;;;;;;;;;;;;;;;10.44;96.69;98516.53;5057241;28;19931;-89
2022/10/01 05:52:34;;;;;;;;;;;;;;;10.48;97.41;98514.84;5056996;28;19913;-90
2022/10/01 05:54:59;;;;;;;;;;;;;;;10.46;96.93;98530.69;5057542;28;19954;-89
2022/10/01 05:57:24;;;;;;;;;;;;;;;10.41;97.74;98530.78;5058328;28;19916;-91
2022/10/01 05:59:50;;;;;;;;;;;;;;;10.41;97.75;98541.66;5056703;28;19952;-89
2022/10/01 06:02:15;;;;;;;;;;;;;;;10.44;97.71;98533.72;5056767;28;19932;-89
2022/10/01 06:04:40;;;;;;;;;;;;;;;10.42;97.78;98535.91;5056568;28;19915;-89
2022/10/01 06:07:05;;;;;;;;;;;;;;;10.51;98.07;98552.47;5055338;28;19909;-89
2022/10/01 06:09:30;;;;;;;;;;;;;;;10.51;97.75;98564.16;5055923;28;19908;-89
2022/10/01 06:11:55;;;;;;;;;;;;;;;10.56;98.04;98555.09;5056381;28;19909;-89
2022/10/01 06:14:21;;;;;;;;;;;;;;;10.57;97.85;98558.66;5057038;28;19959;-89
2022/10/01 06:16:46;;;;;;;;;;;;;;;10.59;98.06;98575.50;5056373;28;19958;-89
2022/10/01 06:19:11;;;;;;;;;;;;;;;10.51;97.96;98568.81;5056592;28;20010;-88
2022/10/01 06:21:37;;;;;;;;;;;;;;;10.54;97.91;98573.66;5056702;28;19935;-89
2022/10/01 06:24:02;;;;;;;;;;;;;;;10.65;97.68;98570.78;5056539;28;19931;-89
2022/10/01 06:26:27;;;;;;;;;;;;;;;10.65;97.98;98573.53;5057023;28;20342;-89
2022/10/01 06:28:52;;;;;;;;;;;;;;;10.58;97.99;98569.25;5056753;28;20245;-88
2022/10/01 06:31:18;;;;;;;;;;;;;;;10.61;97.95;98568.66;5055892;28;19909;-89
2022/10/01 06:33:43;;;;;;;;;;;;;;;10.66;97.91;98580.59;5055875;28;20411;-89
2022/10/01 06:36:08;;;;;;;;;;;;;;;10.82;97.84;98578.47;5056489;28;20343;-86
2022/10/01 06:38:34;;;;;;;;;;;;;;;10.76;97.36;98580.44;5056888;28;19916;-89
2022/10/01 06:41:00;;;;;;;;;;;;;;;10.78;97.53;98580.94;5055789;28;20005;-89
2022/10/01 06:43:26;;;;;;;;;;;;;;;10.78;97.84;98589.13;5055937;28;19931;-90
2022/10/01 06:45:52;;;;;;;;;;;;;;;10.89;97.60;98583.53;5055805;28;19909;-88
2022/10/01 06:48:18;;;;;;;;;;;;;;;10.76;97.64;98585.09;5055745;28;19978;-89
2022/10/01 06:50:45;;;;;;;;;;;;;;;10.80;98.16;98570.56;5056637;28;19909;-88
2022/10/01 06:53:11;;;;;;;;;;;;;;;10.79;97.78;98574.41;5055847;28;19909;-89
2022/10/01 06:55:36;;;;;;;;;;;;;;;10.69;98.55;98582.72;5053999;28;20235;-92
2022/10/01 06:58:06;;;;;;;;;;;;;;;10.65;98.09;98581.69;5054531;28;19944;-92
2022/10/01 07:00:33;;;;;;;;;;;;;;;10.80;97.78;98576.00;5056058;28;20150;-89
2022/10/01 07:02:59;;;;;;;;;;;;;;;10.81;98.18;98583.09;5055456;28;19913;-90
2022/10/01 07:05:25;;;;;;;;;;;;;;;10.80;98.23;98576.00;5056149;28;19960;-87
2022/10/01 07:07:50;;;;;;;;;;;;;;;10.78;97.98;98570.03;5055437;28;19909;-86
2022/10/01 07:10:18;;;;;;;;;;;;;;;10.78;98.39;98572.78;5055321;28;19909;-87
2022/10/01 07:12:47;;;;;;;;;;;;;;;10.77;97.93;98564.91;5053611;28;19915;-89
2022/10/01 07:15:12;;;;;;;;;;;;;;;10.69;98.50;98558.19;5056113;28;19912;-86
2022/10/01 07:17:45;;;;;;;;;;;;;;;10.79;98.46;98566.22;5055407;28;19916;-88
2022/10/01 07:20:11;;;;;;;;;;;;;;;10.85;98.73;98578.69;5055679;28;19916;-89
2022/10/01 07:22:36;;;;;;;;;;;;;;;10.88;98.08;98573.75;5053157;28;19912;-88
2022/10/01 07:25:01;;;;;;;;;;;;;;;10.73;98.39;98589.22;5051988;28;20381;-88
2022/10/01 07:27:27;;;;;;;;;;;;;;;10.86;98.50;98580.28;5054086;28;19926;-86
2022/10/01 07:29:52;;;;;;;;;;;;;;;10.89;98.53;98583.53;5051407;28;20362;-87
2022/10/01 07:32:17;;;;;;;;;;;;;;;11.06;98.49;98588.47;5052478;28;19909;-89
2022/10/01 07:34:42;;;;;;;;;;;;;;;11.02;98.39;98592.91;5053111;28;19987;-87
2022/10/01 07:37:08;;;;;;;;;;;;;;;10.99;98.65;98599.75;5054791;28;19909;-87
2022/10/01 07:39:34;;;;;;;;;;;;;;;10.97;99.26;98597.31;5054892;28;20266;-89
2022/10/01 07:41:59;;;;;;;;;;;;;;;10.96;99.54;98611.25;5055014;28;19951;-88
2022/10/01 07:44:26;;;;;;;;;;;;;;;10.98;99.70;98598.13;5055053;28;19935;-90
2022/10/01 07:46:52;;;;;;;;;;;;;;;11.03;99.22;98610.88;5054978;28;20086;-89
2022/10/01 07:49:17;;;;;;;;;;;;;;;11.04;99.66;98623.41;5054937;28;20015;-88
2022/10/01 07:51:43;;;;;;;;;;;;;;;11.09;99.99;98621.41;5054801;28;19909;-88
2022/10/01 07:54:08;;;;;;;;;;;;;;;11.14;99.88;98617.81;5054821;28;19908;-89
2022/10/01 07:56:33;;;;;;;;;;;;;;;11.14;99.91;98616.97;5054801;28;19968;-88
2022/10/01 07:59:00;;;;;;;;;;;;;;;11.27;99.52;98620.88;5055465;28;19908;-88
2022/10/01 08:01:25;;;;;;;;;;;;;;;11.25;99.77;98623.09;5054711;28;19947;-88
2022/10/01 08:03:51;;;;;;;;;;;;;;;11.33;100.00;98631.41;5054584;28;19963;-88
2022/10/01 08:06:17;;;;;;;;;;;;;;;11.43;99.62;98632.34;5054611;28;19919;-88
2022/10/01 08:08:42;;;;;;;;;;;;;;;11.56;98.55;98637.03;5054821;28;19919;-87
2022/10/01 08:11:09;;;;;;;;;;;;;;;11.52;99.50;98636.00;5054704;28;19908;-88
2022/10/01 08:13:34;;;;;;;;;;;;;;;11.61;98.93;98629.88;5054857;28;20359;-88
2022/10/01 08:16:01;;;;;;;;;;;;;;;11.64;99.23;98632.00;5054621;28;19913;-90
2022/10/01 08:18:26;;;;;;;;;;;;;;;11.67;99.30;98623.22;5054968;28;19909;-90
2022/10/01 08:20:51;;;;;;;;;;;;;;;11.73;99.42;98627.47;5054630;28;20341;-90
2022/10/01 08:23:16;;;;;;;;;;;;;;;11.77;99.48;98630.41;5054757;28;20011;-91
2022/10/01 08:25:43;;;;;;;;;;;;;;;11.74;99.68;98642.75;5054589;28;19940;-90
2022/10/01 08:28:09;;;;;;;;;;;;;;;11.91;99.31;98644.09;5053742;28;19909;-89
2022/10/01 08:30:35;;;;;;;;;;;;;;;11.98;99.47;98641.75;5057028;28;19978;-90
2022/10/01 08:33:00;;;;;;;;;;;;;;;12.04;99.44;98647.94;5058355;28;19909;-88
2022/10/01 08:35:27;;;;;;;;;;;;;;;11.93;100.00;98647.31;5058421;28;20384;-89
2022/10/01 08:37:54;;;;;;;;;;;;;;;12.10;99.73;98648.66;5058216;28;19982;-87
2022/10/01 08:40:20;;;;;;;;;;;;;;;12.12;99.71;98646.47;5058200;28;20009;-87
2022/10/01 08:42:54;;;;;;;;;;;;;;;12.19;99.86;98660.53;5058058;28;20027;-87
2022/10/01 08:45:25;;;;;;;;;;;;;;;12.19;99.84;98659.72;5058059;28;20026;-85
2022/10/01 08:47:56;;;;;;;;;;;;;;;12.25;100.00;98659.31;5058507;28;19908;-85
2022/10/01 08:50:33;;;;;;;;;;;;;;;12.32;100.00;98667.13;5057465;28;20074;-84
2022/10/01 08:53:03;;;;;;;;;;;;;;;12.41;99.67;98667.22;5058311;28;19909;-85
2022/10/01 08:55:35;;;;;;;;;;;;;;;12.41;100.00;98660.97;5058346;28;19991;-84
2022/10/01 08:58:02;;;;;;;;;;;;;;;12.61;99.68;98676.91;5057763;28;20367;-83
2022/10/01 09:00:29;;;;;;;;;;;;;;;12.73;99.84;98661.94;5057264;28;19908;-82
2022/10/01 09:03:02;;;;;;;;;;;;;;;12.73;99.55;98679.13;5058009;28;19916;-85
2022/10/01 09:05:44;;;;;;;;;;;;;;;12.69;99.37;98688.28;5056382;28;19909;-85
2022/10/01 09:08:14;;;;;;;;;;;;;;;12.71;99.11;98686.06;5058219;28;19932;-85
2022/10/01 09:10:43;;;;;;;;;;;;;;;12.61;99.30;98692.50;5058066;28;19936;-85
2022/10/01 09:13:08;;;;;;;;;;;;;;;12.61;99.54;98695.25;5057315;28;19915;-85
2022/10/01 09:15:40;;;;;;;;;;;;;;;12.59;99.97;98697.50;5057956;28;19909;-85
2022/10/01 09:18:30;;;;;;;;;;;;;;;12.71;99.58;98703.25;5057480;28;19913;-85
2022/10/01 09:20:58;;;;;;;;;;;;;;;12.61;99.61;98692.50;5057389;28;19909;-84
2022/10/01 09:23:27;;;;;;;;;;;;;;;12.70;99.60;98704.38;5056719;28;19931;-85
2022/10/01 09:25:52;;;;;;;;;;;;;;;12.74;99.95;98701.84;5057602;28;20353;-85
2022/10/01 09:28:17;;;;;;;;;;;;;;;12.65;99.93;98709.13;5058486;28;19908;-84
2022/10/01 09:31:06;;;;;;;;;;;;;;;12.71;99.84;98705.19;5057849;28;19932;-84
2022/10/01 09:33:43;;;;;;;;;;;;;;;12.80;99.67;98708.00;5048835;28;19956;-84
2022/10/01 09:36:17;;;;;;;;;;;;;;;12.92;98.81;98708.28;5057246;28;19963;-84
2022/10/01 09:38:45;;;;;;;;;;;;;;;12.86;99.82;98706.78;5057506;28;19962;-84
2022/10/01 09:41:12;;;;;;;;;;;;;;;12.83;100.00;98710.13;5056669;28;20008;-84
2022/10/01 09:43:38;;;;;;;;;;;;;;;12.91;99.64;98716.81;5056780;28;20411;-84
2022/10/01 09:46:14;;;;;;;;;;;;;;;13.06;99.35;98707.44;5057350;28;19909;-84
2022/10/01 09:48:53;;;;;;;;;;;;;;;12.98;100.00;98713.66;5057646;28;19909;-84
2022/10/01 09:51:21;;;;;;;;;;;;;;;12.86;100.00;98714.97;5057567;28;19909;-84
2022/10/01 09:53:59;;;;;;;;;;;;;;;12.90;100.00;98721.47;5056926;28;19908;-84
2022/10/01 09:56:34;;;;;;;;;;;;;;;13.00;100.00;98719.63;5056540;28;19915;-84
2022/10/01 09:59:03;;;;;;;;;;;;;;;12.88;100.00;98720.97;5057011;28;19936;-84
2022/10/01 10:01:40;;;;;;;;;;;;;;;12.75;100.00;98730.81;5057271;28;19909;-84
2022/10/01 10:04:05;;;;;;;;;;;;;;;12.86;100.00;98736.88;5057040;28;19915;-84
2022/10/01 10:06:31;;;;;;;;;;;;;;;12.92;100.00;98735.66;5057001;28;19908;-84
2022/10/01 10:08:57;;;;;;;;;;;;;;;12.88;100.00;98733.81;5056709;28;19912;-85
2022/10/01 10:11:26;;;;;;;;;;;;;;;13.05;100.00;98749.63;5056386;28;19919;-85
2022/10/01 10:13:53;;;;;;;;;;;;;;;12.98;100.00;98752.75;5056228;28;19909;-84
2022/10/01 10:16:23;;;;;;;;;;;;;;;12.68;100.00;98758.56;5056217;28;19944;-86
2022/10/01 10:18:52;;;;;;;;;;;;;;;12.74;100.00;98762.00;5055961;28;20375;-83
2022/10/01 10:21:20;;;;;;;;;;;;;;;12.63;100.00;98768.78;5056388;28;19954;-84
2022/10/01 10:23:47;;;;;;;;;;;;;;;12.57;100.00;98770.81;5056055;28;19916;-84
2022/10/01 10:26:16;;;;;;;;;;;;;;;12.62;100.00;98765.22;5055872;28;19917;-84
2022/10/01 10:28:43;;;;;;;;;;;;;;;12.60;100.00;98756.53;5055438;28;19919;-84
2022/10/01 10:31:15;;;;;;;;;;;;;;;12.56;100.00;98745.38;5055816;28;19916;-84
2022/10/01 10:33:50;;;;;;;;;;;;;;;12.65;100.00;98755.63;5055902;28;20007;-88
2022/10/01 10:36:15;;;;;;;;;;;;;;;13.16;98.40;98751.00;5056680;28;19912;-86
2022/10/01 10:38:45;;;;;;;;;;;;;;;13.11;100.00;98751.13;5055866;28;20452;-86
2022/10/01 10:41:15;;;;;;;;;;;;;;;13.33;100.00;98754.22;5054998;28;20262;-86
2022/10/01 10:43:42;;;;;;;;;;;;;;;13.49;100.00;98762.88;5055585;28;19909;-85
2022/10/01 10:46:08;;;;;;;;;;;;;;;13.62;100.00;98756.59;5055635;28;19908;-85
2022/10/01 10:48:42;;;;;;;;;;;;;;;13.91;100.00;98767.44;5055717;28;19908;-85
2022/10/01 10:51:09;;;;;;;;;;;;;;;13.92;100.00;98769.03;5056327;28;19978;-85
2022/10/01 10:53:45;;;;;;;;;;;;;;;14.12;100.00;98768.53;5055567;28;19913;-85
2022/10/01 10:56:21;;;;;;;;;;;;;;;14.06;100.00;98775.28;5055790;28;19935;-86
2022/10/01 10:58:47;;;;;;;;;;;;;;;14.21;100.00;98776.81;5055976;28;20243;-86
2022/10/01 11:01:18;;;;;;;;;;;;;;;14.28;99.33;98770.09;5055641;28;20003;-86
2022/10/01 11:03:48;;;;;;;;;;;;;;;14.44;97.38;98774.03;5056321;28;20310;-86
2022/10/01 11:06:15;;;;;;;;;;;;;;;14.56;99.20;98784.41;5055489;28;19909;-89
2022/10/01 11:08:41;;;;;;;;;;;;;;;14.52;97.60;98783.41;5055302;28;20022;-87
2022/10/01 11:11:26;;;;;;;;;;;;;;;14.48;97.37;98785.19;5055397;28;19957;-86
2022/10/01 11:14:10;;;;;;;;;;;;;;;14.59;96.78;98789.28;5055303;28;19915;-87
2022/10/01 11:17:03;;;;;;;;;;;;;;;14.49;96.68;98784.06;5056220;28;19966;-87
2022/10/01 11:19:35;;;;;;;;;;;;;;;14.46;96.51;98795.66;5055482;28;19948;-86
2022/10/01 11:22:00;;;;;;;;;;;;;;;14.48;96.21;98799.69;5055184;28;19915;-87
2022/10/01 11:24:44;;;;;;;;;;;;;;;14.56;97.63;98797.31;5055341;28;20000;-85
2022/10/01 11:27:21;;;;;;;;;;;;;;;14.82;96.73;98800.19;5055472;28;20346;-86
2022/10/01 11:29:49;;;;;;;;;;;;;;;14.96;94.83;98793.78;5055036;28;19955;-87
2022/10/01 11:32:23;;;;;;;;;;;;;;;15.09;95.71;98807.72;5054907;28;20019;-87
2022/10/01 11:34:51;;;;;;;;;;;;;;;15.03;93.72;98798.84;5055348;28;19927;-87
2022/10/01 11:37:32;;;;;;;;;;;;;;;15.00;93.86;98804.94;5054555;28;20384;-86
2022/10/01 11:40:00;;;;;;;;;;;;;;;15.05;92.65;98802.84;5055521;28;19908;-88
2022/10/01 11:42:33;;;;;;;;;;;;;;;15.05;92.95;98805.59;5054449;28;19982;-88
2022/10/01 11:45:06;;;;;;;;;;;;;;;14.95;92.49;98792.16;5054880;28;19963;-88
2022/10/01 11:47:35;;;;;;;;;;;;;;;15.03;92.18;98798.84;5055419;28;19909;-88
2022/10/01 11:50:06;;;;;;;;;;;;;;;15.05;92.00;98791.09;5055976;28;19970;-87
2022/10/01 11:52:36;;;;;;;;;;;;;;;15.23;91.52;98799.34;5055099;28;20366;-87
2022/10/01 12:00:56;;;;;;;;;;;;;;;14.91;89.53;98802.16;5055036;28;19931;-87
2022/10/01 12:03:26;;;;;;;;;;;;;;;14.77;89.99;98802.25;5053773;28;19920;-87
2022/10/01 12:05:52;;;;;;;;;;;;;;;14.56;91.17;98803.59;5059236;28;19992;-86
2022/10/01 12:08:20;;;;;;;;;;;;;;;14.38;93.08;98799.97;5058589;28;20330;-87
2022/10/01 12:10:57;;;;;;;;;;;;;;;14.32;95.33;98817.69;5058828;28;19909;-86
2022/10/01 12:13:26;;;;;;;;;;;;;;;14.22;96.59;98822.28;5059207;28;19919;-86
2022/10/01 12:16:00;;;;;;;;;;;;;;;14.01;97.37;98822.00;5058630;28;19955;-87
2022/10/01 12:18:31;;;;;;;;;;;;;;;14.07;96.90;98820.75;5058070;28;19915;-86
2022/10/01 12:20:59;;;;;;;;;;;;;;;14.05;97.64;98831.22;5058692;28;19908;-87
2022/10/01 12:23:27;;;;;;;;;;;;;;;14.15;97.20;98848.53;5058929;28;19908;-86
2022/10/01 12:26:02;;;;;;;;;;;;;;;14.12;97.71;98853.50;5058002;28;19912;-87
2022/10/01 12:28:45;;;;;;;;;;;;;;;14.23;96.51;98845.03;5058462;28;19991;-88
2022/10/01 12:31:32;;;;;;;;;;;;;;;14.04;96.60;98843.28;5059039;28;20000;-87
2022/10/01 12:34:08;;;;;;;;;;;;;;;14.10;96.71;98849.44;5058968;28;19939;-87
2022/10/01 12:36:40;;;;;;;;;;;;;;;14.07;97.56;98850.91;5058668;28;20409;-87
2022/10/01 12:39:17;;;;;;;;;;;;;;;14.39;97.60;98856.44;5058525;28;19913;-88
2022/10/01 12:41:58;;;;;;;;;;;;;;;14.61;97.86;98859.44;5056072;28;19920;-88
2022/10/01 12:44:43;;;;;;;;;;;;;;;14.72;98.60;98866.31;5058350;28;20258;-88
2022/10/01 12:47:11;;;;;;;;;;;;;;;14.81;99.34;98861.66;5058369;28;19912;-85
2022/10/01 12:49:36;;;;;;;;;;;;;;;14.99;96.70;98858.22;5059317;28;19908;-86
2022/10/01 12:52:04;;;;;;;;;;;;;;;14.86;97.69;98862.69;5058335;28;19991;-86
2022/10/01 12:54:48;;;;;;;;;;;;;;;14.92;95.84;98864.97;5058025;28;19908;-86
2022/10/01 12:57:35;;;;;;;;;;;;;;;14.74;96.19;98869.53;5058049;28;19931;-86